createdAt,value
2022-11-09T00:00:26.636Z,75.60
2022-11-09T00:05:34.446Z,75.53
2022-11-09T00:10:42.223Z,75.66
2022-11-09T00:15:50.008Z,75.57
2022-11-09T00:20:57.950Z,75.85
2022-11-09T00:26:06.826Z,75.79
2022-11-09T00:31:18.671Z,75.77
2022-11-09T00:36:28.356Z,75.70
2022-11-09T00:41:36.156Z,75.66
2022-11-09T00:46:43.932Z,75.71
2022-11-09T00:51:52.290Z,75.88
2022-11-09T00:56:58.754Z,75.99
2022-11-09T01:02:07.032Z,75.97
2022-11-09T01:07:15.347Z,76.15
2022-11-09T01:12:21.684Z,76.25
2022-11-09T01:17:32.238Z,76.15
2022-11-09T01:22:40.065Z,76.26
2022-11-09T01:27:47.903Z,76.33
2022-11-09T01:32:55.669Z,76.32
2022-11-09T01:38:03.779Z,76.32
2022-11-09T01:43:18.831Z,76.44
2022-11-09T01:48:35.762Z,76.42
2022-11-09T01:53:49.128Z,76.59
2022-11-09T01:59:00.498Z,76.59
2022-11-09T02:04:15.703Z,76.48
2022-11-09T02:09:41.374Z,76.52
2022-11-09T02:14:52.171Z,76.52
2022-11-09T02:20:01.356Z,76.64
2022-11-09T02:25:11.602Z,76.76
2022-11-09T02:30:22.192Z,76.79
2022-11-09T02:35:30.046Z,76.83
2022-11-09T02:40:38.461Z,76.83
2022-11-09T02:45:46.511Z,76.86
2022-11-09T02:50:56.948Z,76.86
2022-11-09T02:56:04.791Z,76.88
2022-11-09T03:01:12.653Z,76.87
2022-11-09T03:06:21.060Z,76.89
2022-11-09T03:11:30.150Z,76.88
2022-11-09T03:16:40.352Z,76.77
2022-11-09T03:21:48.140Z,76.72
2022-11-09T03:26:55.990Z,76.80
2022-11-09T03:32:04.817Z,76.93
2022-11-09T03:37:12.823Z,76.97
2022-11-09T03:42:21.134Z,76.89
2022-11-09T03:47:30.143Z,77.08
2022-11-09T03:52:38.114Z,77.08
2022-11-09T03:57:48.665Z,77.16
2022-11-09T04:02:56.418Z,77.23
2022-11-09T04:08:04.546Z,77.10
2022-11-09T04:13:12.501Z,76.92
2022-11-09T04:18:20.619Z,77.06
2022-11-09T04:23:28.469Z,77.18
2022-11-09T04:28:36.098Z,77.18
2022-11-09T04:33:43.733Z,77.15
2022-11-09T04:38:51.665Z,77.22
2022-11-09T04:44:01.215Z,77.20
2022-11-09T04:49:09.251Z,77.20
2022-11-09T04:54:16.989Z,77.33
2022-11-09T04:59:25.018Z,77.29
2022-11-09T05:04:35.160Z,77.37
2022-11-09T05:09:43.089Z,77.25
2022-11-09T05:14:50.701Z,77.16
2022-11-09T05:19:58.608Z,77.27
2022-11-09T05:25:06.668Z,77.52
2022-11-09T05:30:13.541Z,77.58
2022-11-09T05:35:21.234Z,77.53
2022-11-09T05:40:28.973Z,77.59
2022-11-09T05:45:42.636Z,77.58
2022-11-09T05:50:51.309Z,77.41
2022-11-09T05:56:07.384Z,77.35
2022-11-09T06:01:16.525Z,77.44
2022-11-09T06:06:24.872Z,77.62
2022-11-09T06:11:31.353Z,77.74
2022-11-09T06:16:39.317Z,77.68
2022-11-09T06:21:47.004Z,77.64
2022-11-09T06:26:54.837Z,77.61
2022-11-09T06:32:02.975Z,77.70
2022-11-09T06:37:10.750Z,77.77
2022-11-09T06:42:18.953Z,77.78
2022-11-09T06:47:28.431Z,77.79
2022-11-09T06:52:36.027Z,77.74
2022-11-09T06:57:43.875Z,77.88
2022-11-09T07:02:52.491Z,77.83
2022-11-09T07:08:00.820Z,77.93
2022-11-09T07:13:09.021Z,77.94
2022-11-09T07:18:16.669Z,77.96
2022-11-09T07:23:24.513Z,77.82
2022-11-09T07:28:30.742Z,77.76
2022-11-09T07:33:38.690Z,77.77
2022-11-09T07:38:44.867Z,77.83
2022-11-09T07:43:52.813Z,77.80
2022-11-09T07:49:00.476Z,77.58
2022-11-09T07:54:08.651Z,77.71
2022-11-09T07:59:14.704Z,77.02
2022-11-09T08:04:22.346Z,76.87
2022-11-09T08:09:30.570Z,76.76
2022-11-09T08:14:39.550Z,76.71
2022-11-09T08:19:47.308Z,76.83
2022-11-09T08:24:55.245Z,76.77
2022-11-09T08:30:01.586Z,76.82
2022-11-09T08:35:11.511Z,77.01
2022-11-09T08:40:22.679Z,76.75
2022-11-09T08:45:31.123Z,76.71
2022-11-09T08:50:40.525Z,76.69
2022-11-09T08:55:49.585Z,76.73
2022-11-09T09:00:58.164Z,76.79
2022-11-09T09:06:07.989Z,76.85
2022-11-09T09:11:16.761Z,76.73
2022-11-09T09:16:24.509Z,76.54
2022-11-09T09:21:32.400Z,76.32
2022-11-09T09:26:40.019Z,76.20
2022-11-09T09:31:47.750Z,76.03
2022-11-09T09:36:56.683Z,76.04
2022-11-09T09:42:06.747Z,76.17
2022-11-09T09:47:18.238Z,76.06
2022-11-09T09:52:34.986Z,76.11
2022-11-09T09:57:45.360Z,76.34
2022-11-09T10:02:54.081Z,76.75
2022-11-09T10:08:10.276Z,76.54
2022-11-09T10:13:52.163Z,75.72
2022-11-09T10:19:20.600Z,75.29
2022-11-09T10:24:36.795Z,74.63
2022-11-09T10:29:47.996Z,74.21
2022-11-09T10:35:07.276Z,74.27
2022-11-09T10:40:20.940Z,74.31
2022-11-09T10:45:58.545Z,74.40
2022-11-09T10:51:37.899Z,74.41
2022-11-09T10:57:14.257Z,74.20
2022-11-09T11:02:48.493Z,74.26
2022-11-09T11:08:42.319Z,74.29
2022-11-09T11:14:23.062Z,74.27
2022-11-09T11:19:50.303Z,74.24
2022-11-09T11:25:25.161Z,74.26
2022-11-09T11:30:52.465Z,74.16
2022-11-09T11:36:28.037Z,73.99
2022-11-09T11:42:16.546Z,74.01
2022-11-09T11:47:51.423Z,73.90
2022-11-09T11:53:32.845Z,74.01
2022-11-09T11:59:15.921Z,73.91
2022-11-09T12:05:06.323Z,73.94
2022-11-09T12:10:46.917Z,73.75
2022-11-09T12:16:22.177Z,73.70
2022-11-09T12:21:56.420Z,73.76
2022-11-09T12:27:38.897Z,73.71
2022-11-09T12:33:10.207Z,73.62
2022-11-09T12:38:43.545Z,73.75
2022-11-09T12:44:19.707Z,73.73
2022-11-09T12:49:48.051Z,73.46
2022-11-09T12:55:14.919Z,73.49
2022-11-09T13:00:54.449Z,73.51
2022-11-09T13:06:24.180Z,73.48
2022-11-09T13:11:53.642Z,73.42
2022-11-09T13:17:55.050Z,73.34
2022-11-09T13:23:54.688Z,73.35
2022-11-09T13:29:52.219Z,73.39
2022-11-09T13:35:52.171Z,73.46
2022-11-09T13:41:43.946Z,73.50
2022-11-09T13:47:25.009Z,73.42
2022-11-09T13:52:54.135Z,73.47
2022-11-09T13:58:24.814Z,73.39
2022-11-09T14:03:54.391Z,73.44
2022-11-09T14:09:22.513Z,73.45
2022-11-09T14:15:09.397Z,73.58
2022-11-09T14:20:43.180Z,73.56
2022-11-09T14:26:20.627Z,73.51
2022-11-09T14:31:51.030Z,73.45
2022-11-09T14:37:18.631Z,73.50
2022-11-09T14:42:53.471Z,73.53
2022-11-09T14:48:22.047Z,73.43
2022-11-09T14:53:51.020Z,73.49
2022-11-09T14:59:20.105Z,73.49
2022-11-09T15:04:58.946Z,73.48
2022-11-09T15:10:29.935Z,73.52
2022-11-09T15:15:58.449Z,73.60
2022-11-09T15:21:36.436Z,73.52
2022-11-09T15:27:03.192Z,73.53
2022-11-09T15:32:34.165Z,73.56
2022-11-09T15:38:00.421Z,73.54
2022-11-09T15:43:28.016Z,73.50
2022-11-09T15:48:54.584Z,73.44
2022-11-09T15:54:21.664Z,73.41
2022-11-09T15:59:49.277Z,73.64
2022-11-09T16:05:16.937Z,73.65
2022-11-09T16:10:44.727Z,73.65
2022-11-09T16:16:14.092Z,73.60
2022-11-09T16:21:40.587Z,73.63
2022-11-09T16:27:17.185Z,73.58
2022-11-09T16:32:55.761Z,73.63
2022-11-09T16:38:22.650Z,73.69
2022-11-09T16:43:52.856Z,73.59
2022-11-09T16:49:19.471Z,73.72
2022-11-09T16:54:45.861Z,73.79
2022-11-09T17:00:18.878Z,73.82
2022-11-09T17:05:46.243Z,73.93
2022-11-09T17:11:15.282Z,73.98
2022-11-09T17:16:42.747Z,73.90
2022-11-09T17:22:08.998Z,74.01
2022-11-09T17:27:35.470Z,73.99
2022-11-09T17:33:05.473Z,74.13
2022-11-09T17:38:32.326Z,73.98
2022-11-09T17:44:02.769Z,73.98
2022-11-09T17:49:29.433Z,74.14
2022-11-09T17:54:55.991Z,74.16
2022-11-09T18:00:24.437Z,74.29
2022-11-09T18:05:49.583Z,74.35
2022-11-09T18:11:17.063Z,74.28
2022-11-09T18:16:43.309Z,74.45
2022-11-09T18:22:12.881Z,74.47
2022-11-09T18:27:39.527Z,74.56
2022-11-09T18:33:06.210Z,74.59
2022-11-09T18:38:33.000Z,74.72
2022-11-09T18:44:02.742Z,74.62
2022-11-09T18:49:29.543Z,74.48
2022-11-09T18:54:57.036Z,74.70
2022-11-09T19:00:23.703Z,74.87
2022-11-09T19:05:50.644Z,74.81
2022-11-09T19:11:17.165Z,74.81
2022-11-09T19:16:43.544Z,74.87
2022-11-09T19:22:28.886Z,74.96
2022-11-09T19:27:55.565Z,74.96
2022-11-09T19:33:21.990Z,75.07
2022-11-09T19:38:50.497Z,74.87
2022-11-09T19:44:18.223Z,74.77
2022-11-09T19:49:45.050Z,74.86
2022-11-09T19:55:12.632Z,74.90
2022-11-09T20:00:38.972Z,74.88
2022-11-09T20:06:07.271Z,75.00
2022-11-09T20:11:56.356Z,75.03
2022-11-09T20:17:28.427Z,75.02
2022-11-09T20:22:54.720Z,75.09
2022-11-09T20:28:21.784Z,75.03
2022-11-09T20:34:02.879Z,75.03
2022-11-09T20:39:29.414Z,75.21
2022-11-09T20:44:56.887Z,75.23
2022-11-09T20:50:23.517Z,75.18
2022-11-09T20:55:53.610Z,75.29
2022-11-09T21:01:24.998Z,75.38
2022-11-09T21:06:51.761Z,75.48
2022-11-09T21:12:25.168Z,75.34
2022-11-09T21:17:54.042Z,75.37
2022-11-09T21:23:38.136Z,75.48
2022-11-09T21:29:22.015Z,75.62
2022-11-09T21:34:48.510Z,75.81
2022-11-09T21:40:15.396Z,75.75
2022-11-09T21:45:41.794Z,75.96
2022-11-09T21:51:08.262Z,75.84
2022-11-09T21:56:35.415Z,75.78
2022-11-09T22:02:02.060Z,75.80
2022-11-09T22:07:28.501Z,75.80
2022-11-09T22:13:12.783Z,75.84
2022-11-09T22:18:57.416Z,75.73
2022-11-09T22:24:23.755Z,75.70
2022-11-09T22:29:50.433Z,75.87
2022-11-09T22:35:17.224Z,75.94
2022-11-09T22:40:44.307Z,75.94
2022-11-09T22:46:14.199Z,75.98
2022-11-09T22:51:40.687Z,76.13
2022-11-09T22:57:07.151Z,76.20
2022-11-09T23:02:33.521Z,76.19
2022-11-09T23:07:59.865Z,76.29
2022-11-09T23:13:26.981Z,76.17
2022-11-09T23:18:57.083Z,76.39
2022-11-09T23:24:37.096Z,76.26
2022-11-09T23:30:04.524Z,76.15
2022-11-09T23:35:30.776Z,76.28
2022-11-09T23:40:59.799Z,76.41
2022-11-09T23:46:26.126Z,76.33
2022-11-09T23:51:52.210Z,76.33
2022-11-09T23:57:18.601Z,76.46
